sensor_id;sensor_type;location;lat;lon;timestamp;P1;durP1;ratioP1;P2;durP2;ratioP2
48623;SDS011;34422;45.802;16.114;2023-09-07T00:01:34;8.43;;;4.00;;
48623;SDS011;34422;45.802;16.114;2023-09-07T00:04:01;5.82;;;3.53;;
48623;SDS011;34422;45.802;16.114;2023-09-07T00:06:29;6.10;;;3.78;;
48623;SDS011;34422;45.802;16.114;2023-09-07T00:08:56;7.07;;;4.03;;
48623;SDS011;34422;45.802;16.114;2023-09-07T00:11:23;7.82;;;3.80;;
48623;SDS011;34422;45.802;16.114;2023-09-07T00:13:50;8.45;;;4.32;;
48623;SDS011;34422;45.802;16.114;2023-09-07T00:16:17;8.45;;;4.78;;
48623;SDS011;34422;45.802;16.114;2023-09-07T00:18:44;8.75;;;4.78;;
48623;SDS011;34422;45.802;16.114;2023-09-07T00:21:11;8.30;;;4.47;;
48623;SDS011;34422;45.802;16.114;2023-09-07T00:23:39;6.53;;;4.18;;
48623;SDS011;34422;45.802;16.114;2023-09-07T00:26:06;8.38;;;4.45;;
48623;SDS011;34422;45.802;16.114;2023-09-07T00:28:33;6.35;;;4.15;;
48623;SDS011;34422;45.802;16.114;2023-09-07T00:31:00;7.30;;;4.68;;
48623;SDS011;34422;45.802;16.114;2023-09-07T00:33:27;7.47;;;4.35;;
48623;SDS011;34422;45.802;16.114;2023-09-07T00:35:54;9.73;;;4.53;;
48623;SDS011;34422;45.802;16.114;2023-09-07T00:38:21;7.53;;;4.20;;
48623;SDS011;34422;45.802;16.114;2023-09-07T00:40:48;9.30;;;3.90;;
48623;SDS011;34422;45.802;16.114;2023-09-07T00:43:14;7.07;;;4.10;;
48623;SDS011;34422;45.802;16.114;2023-09-07T00:45:41;5.82;;;3.70;;
48623;SDS011;34422;45.802;16.114;2023-09-07T00:48:08;8.40;;;4.05;;
48623;SDS011;34422;45.802;16.114;2023-09-07T00:50:38;7.60;;;4.07;;
48623;SDS011;34422;45.802;16.114;2023-09-07T00:53:05;6.65;;;4.00;;
48623;SDS011;34422;45.802;16.114;2023-09-07T00:55:33;8.32;;;4.95;;
48623;SDS011;34422;45.802;16.114;2023-09-07T00:58:01;10.68;;;4.70;;
48623;SDS011;34422;45.802;16.114;2023-09-07T01:00:30;8.35;;;4.63;;
48623;SDS011;34422;45.802;16.114;2023-09-07T01:02:58;7.95;;;4.80;;
48623;SDS011;34422;45.802;16.114;2023-09-07T01:05:27;11.07;;;5.47;;
48623;SDS011;34422;45.802;16.114;2023-09-07T01:08:03;9.93;;;5.97;;
48623;SDS011;34422;45.802;16.114;2023-09-07T01:10:38;7.53;;;5.25;;
48623;SDS011;34422;45.802;16.114;2023-09-07T01:13:05;9.60;;;5.65;;
48623;SDS011;34422;45.802;16.114;2023-09-07T01:15:32;8.32;;;5.45;;
48623;SDS011;34422;45.802;16.114;2023-09-07T01:17:59;9.38;;;5.57;;
48623;SDS011;34422;45.802;16.114;2023-09-07T01:20:26;10.40;;;6.13;;
48623;SDS011;34422;45.802;16.114;2023-09-07T01:22:54;10.25;;;6.43;;
48623;SDS011;34422;45.802;16.114;2023-09-07T01:25:22;9.93;;;6.93;;
48623;SDS011;34422;45.802;16.114;2023-09-07T01:27:50;9.50;;;6.90;;
48623;SDS011;34422;45.802;16.114;2023-09-07T01:30:17;8.90;;;6.68;;
48623;SDS011;34422;45.802;16.114;2023-09-07T01:32:44;10.88;;;7.05;;
48623;SDS011;34422;45.802;16.114;2023-09-07T01:35:11;9.02;;;6.55;;
48623;SDS011;34422;45.802;16.114;2023-09-07T01:37:43;8.40;;;5.95;;
48623;SDS011;34422;45.802;16.114;2023-09-07T01:40:10;10.68;;;6.70;;
48623;SDS011;34422;45.802;16.114;2023-09-07T01:42:37;10.38;;;6.75;;
48623;SDS011;34422;45.802;16.114;2023-09-07T01:45:04;8.32;;;6.05;;
48623;SDS011;34422;45.802;16.114;2023-09-07T01:47:32;8.27;;;5.75;;
48623;SDS011;34422;45.802;16.114;2023-09-07T01:49:58;8.35;;;5.68;;
48623;SDS011;34422;45.802;16.114;2023-09-07T01:52:25;7.28;;;4.38;;
48623;SDS011;34422;45.802;16.114;2023-09-07T01:54:52;8.40;;;5.05;;
48623;SDS011;34422;45.802;16.114;2023-09-07T01:57:19;16.50;;;4.72;;
48623;SDS011;34422;45.802;16.114;2023-09-07T01:59:46;8.02;;;4.40;;
48623;SDS011;34422;45.802;16.114;2023-09-07T02:02:14;7.18;;;4.53;;
48623;SDS011;34422;45.802;16.114;2023-09-07T02:04:41;7.38;;;4.63;;
48623;SDS011;34422;45.802;16.114;2023-09-07T02:09:46;8.27;;;4.72;;
48623;SDS011;34422;45.802;16.114;2023-09-07T02:12:13;8.50;;;5.65;;
48623;SDS011;34422;45.802;16.114;2023-09-07T02:14:39;7.50;;;4.70;;
48623;SDS011;34422;45.802;16.114;2023-09-07T02:17:06;8.48;;;4.80;;
48623;SDS011;34422;45.802;16.114;2023-09-07T02:19:33;10.52;;;4.47;;
48623;SDS011;34422;45.802;16.114;2023-09-07T02:22:00;7.57;;;4.78;;
48623;SDS011;34422;45.802;16.114;2023-09-07T02:24:27;6.95;;;4.00;;
48623;SDS011;34422;45.802;16.114;2023-09-07T02:26:54;6.97;;;3.70;;
48623;SDS011;34422;45.802;16.114;2023-09-07T02:29:21;6.07;;;3.70;;
48623;SDS011;34422;45.802;16.114;2023-09-07T02:31:47;7.18;;;4.28;;
48623;SDS011;34422;45.802;16.114;2023-09-07T02:34:14;8.18;;;4.07;;
48623;SDS011;34422;45.802;16.114;2023-09-07T02:36:41;6.22;;;3.97;;
48623;SDS011;34422;45.802;16.114;2023-09-07T02:39:09;7.55;;;4.00;;
48623;SDS011;34422;45.802;16.114;2023-09-07T02:41:37;7.38;;;3.72;;
48623;SDS011;34422;45.802;16.114;2023-09-07T02:44:07;6.00;;;3.67;;
48623;SDS011;34422;45.802;16.114;2023-09-07T02:46:34;6.43;;;3.70;;
48623;SDS011;34422;45.802;16.114;2023-09-07T02:49:01;6.32;;;3.97;;
48623;SDS011;34422;45.802;16.114;2023-09-07T02:51:27;6.78;;;3.88;;
48623;SDS011;34422;45.802;16.114;2023-09-07T02:53:56;5.90;;;3.63;;
48623;SDS011;34422;45.802;16.114;2023-09-07T02:56:22;8.43;;;4.00;;
48623;SDS011;34422;45.802;16.114;2023-09-07T02:58:49;9.85;;;5.28;;
48623;SDS011;34422;45.802;16.114;2023-09-07T03:01:16;10.40;;;6.32;;
48623;SDS011;34422;45.802;16.114;2023-09-07T03:03:47;9.98;;;6.45;;
48623;SDS011;34422;45.802;16.114;2023-09-07T03:06:14;11.75;;;7.18;;
48623;SDS011;34422;45.802;16.114;2023-09-07T03:08:43;9.40;;;6.47;;
48623;SDS011;34422;45.802;16.114;2023-09-07T03:11:10;8.75;;;6.35;;
48623;SDS011;34422;45.802;16.114;2023-09-07T03:13:37;9.27;;;6.50;;
48623;SDS011;34422;45.802;16.114;2023-09-07T03:16:04;15.50;;;7.50;;
48623;SDS011;34422;45.802;16.114;2023-09-07T03:18:31;12.52;;;6.97;;
48623;SDS011;34422;45.802;16.114;2023-09-07T03:20:59;12.00;;;7.50;;
48623;SDS011;34422;45.802;16.114;2023-09-07T03:23:28;10.30;;;7.47;;
48623;SDS011;34422;45.802;16.114;2023-09-07T03:25:56;12.82;;;8.95;;
48623;SDS011;34422;45.802;16.114;2023-09-07T03:28:23;15.18;;;9.68;;
48623;SDS011;34422;45.802;16.114;2023-09-07T03:30:52;14.75;;;10.13;;
48623;SDS011;34422;45.802;16.114;2023-09-07T03:33:20;13.38;;;9.65;;
48623;SDS011;34422;45.802;16.114;2023-09-07T03:35:47;16.10;;;11.07;;
48623;SDS011;34422;45.802;16.114;2023-09-07T03:38:14;14.88;;;10.70;;
48623;SDS011;34422;45.802;16.114;2023-09-07T03:40:41;14.35;;;10.38;;
48623;SDS011;34422;45.802;16.114;2023-09-07T03:43:08;14.18;;;9.00;;
48623;SDS011;34422;45.802;16.114;2023-09-07T03:45:35;13.73;;;9.02;;
48623;SDS011;34422;45.802;16.114;2023-09-07T03:48:05;13.38;;;9.25;;
48623;SDS011;34422;45.802;16.114;2023-09-07T03:50:32;15.35;;;10.05;;
48623;SDS011;34422;45.802;16.114;2023-09-07T03:52:59;15.20;;;10.38;;
48623;SDS011;34422;45.802;16.114;2023-09-07T03:55:26;16.55;;;10.63;;
48623;SDS011;34422;45.802;16.114;2023-09-07T03:57:53;13.32;;;10.10;;
48623;SDS011;34422;45.802;16.114;2023-09-07T04:00:21;16.35;;;10.35;;
48623;SDS011;34422;45.802;16.114;2023-09-07T04:02:47;15.00;;;10.82;;
48623;SDS011;34422;45.802;16.114;2023-09-07T04:05:14;14.95;;;10.43;;
48623;SDS011;34422;45.802;16.114;2023-09-07T04:07:41;15.32;;;10.73;;
48623;SDS011;34422;45.802;16.114;2023-09-07T04:10:08;14.73;;;10.95;;
48623;SDS011;34422;45.802;16.114;2023-09-07T04:12:35;13.13;;;10.40;;
48623;SDS011;34422;45.802;16.114;2023-09-07T04:15:02;18.98;;;11.60;;
48623;SDS011;34422;45.802;16.114;2023-09-07T04:17:29;15.02;;;11.73;;
48623;SDS011;34422;45.802;16.114;2023-09-07T04:19:56;16.08;;;11.18;;
48623;SDS011;34422;45.802;16.114;2023-09-07T04:22:23;17.08;;;12.23;;
48623;SDS011;34422;45.802;16.114;2023-09-07T04:24:50;14.05;;;10.98;;
48623;SDS011;34422;45.802;16.114;2023-09-07T04:27:17;17.77;;;11.05;;
48623;SDS011;34422;45.802;16.114;2023-09-07T04:29:44;14.75;;;10.68;;
48623;SDS011;34422;45.802;16.114;2023-09-07T04:32:10;14.27;;;11.05;;
48623;SDS011;34422;45.802;16.114;2023-09-07T04:34:37;16.55;;;11.38;;
48623;SDS011;34422;45.802;16.114;2023-09-07T04:37:04;15.57;;;11.02;;
48623;SDS011;34422;45.802;16.114;2023-09-07T04:39:31;18.25;;;11.82;;
48623;SDS011;34422;45.802;16.114;2023-09-07T04:41:58;16.90;;;11.88;;
48623;SDS011;34422;45.802;16.114;2023-09-07T04:44:25;16.40;;;11.43;;
48623;SDS011;34422;45.802;16.114;2023-09-07T04:46:54;16.98;;;11.85;;
48623;SDS011;34422;45.802;16.114;2023-09-07T04:49:23;14.25;;;11.00;;
48623;SDS011;34422;45.802;16.114;2023-09-07T04:51:52;17.23;;;12.38;;
48623;SDS011;34422;45.802;16.114;2023-09-07T04:54:20;17.27;;;11.82;;
48623;SDS011;34422;45.802;16.114;2023-09-07T04:56:47;17.83;;;11.48;;
48623;SDS011;34422;45.802;16.114;2023-09-07T04:59:14;14.55;;;10.32;;
48623;SDS011;34422;45.802;16.114;2023-09-07T05:01:41;21.80;;;11.38;;
48623;SDS011;34422;45.802;16.114;2023-09-07T05:04:08;15.27;;;11.75;;
48623;SDS011;34422;45.802;16.114;2023-09-07T05:06:34;14.70;;;10.50;;
48623;SDS011;34422;45.802;16.114;2023-09-07T05:09:03;16.13;;;10.65;;
48623;SDS011;34422;45.802;16.114;2023-09-07T05:11:30;16.58;;;11.38;;
48623;SDS011;34422;45.802;16.114;2023-09-07T05:13:57;17.48;;;12.27;;
48623;SDS011;34422;45.802;16.114;2023-09-07T05:16:24;14.32;;;10.68;;
48623;SDS011;34422;45.802;16.114;2023-09-07T05:18:51;13.20;;;10.65;;
48623;SDS011;34422;45.802;16.114;2023-09-07T05:21:18;15.90;;;11.10;;
48623;SDS011;34422;45.802;16.114;2023-09-07T05:23:46;20.70;;;11.75;;
48623;SDS011;34422;45.802;16.114;2023-09-07T05:26:13;14.60;;;11.38;;
48623;SDS011;34422;45.802;16.114;2023-09-07T05:28:40;17.35;;;11.07;;
48623;SDS011;34422;45.802;16.114;2023-09-07T05:31:10;18.67;;;12.38;;
48623;SDS011;34422;45.802;16.114;2023-09-07T05:33:37;17.50;;;11.23;;
48623;SDS011;34422;45.802;16.114;2023-09-07T05:36:04;16.25;;;11.90;;
48623;SDS011;34422;45.802;16.114;2023-09-07T05:38:31;16.95;;;12.50;;
48623;SDS011;34422;45.802;16.114;2023-09-07T05:40:57;16.50;;;11.95;;
48623;SDS011;34422;45.802;16.114;2023-09-07T05:43:24;13.70;;;10.48;;
48623;SDS011;34422;45.802;16.114;2023-09-07T05:45:51;13.45;;;10.40;;
48623;SDS011;34422;45.802;16.114;2023-09-07T05:48:18;15.60;;;9.73;;
48623;SDS011;34422;45.802;16.114;2023-09-07T05:50:45;18.55;;;9.80;;
48623;SDS011;34422;45.802;16.114;2023-09-07T05:53:12;15.65;;;7.97;;
48623;SDS011;34422;45.802;16.114;2023-09-07T05:55:39;23.33;;;8.40;;
48623;SDS011;34422;45.802;16.114;2023-09-07T05:58:07;13.98;;;6.00;;
48623;SDS011;34422;45.802;16.114;2023-09-07T06:00:35;15.20;;;6.95;;
48623;SDS011;34422;45.802;16.114;2023-09-07T06:03:02;9.48;;;5.82;;
48623;SDS011;34422;45.802;16.114;2023-09-07T06:05:30;8.50;;;5.07;;
48623;SDS011;34422;45.802;16.114;2023-09-07T06:07:58;9.00;;;5.55;;
48623;SDS011;34422;45.802;16.114;2023-09-07T06:10:27;9.30;;;5.93;;
48623;SDS011;34422;45.802;16.114;2023-09-07T06:12:55;8.43;;;5.85;;
48623;SDS011;34422;45.802;16.114;2023-09-07T06:15:22;8.75;;;6.35;;
48623;SDS011;34422;45.802;16.114;2023-09-07T06:17:49;10.07;;;6.82;;
48623;SDS011;34422;45.802;16.114;2023-09-07T06:20:16;11.80;;;6.47;;
48623;SDS011;34422;45.802;16.114;2023-09-07T06:22:45;10.48;;;5.78;;
48623;SDS011;34422;45.802;16.114;2023-09-07T06:25:12;13.13;;;5.70;;
48623;SDS011;34422;45.802;16.114;2023-09-07T06:27:39;13.07;;;6.43;;
48623;SDS011;34422;45.802;16.114;2023-09-07T06:30:06;12.10;;;5.53;;
48623;SDS011;34422;45.802;16.114;2023-09-07T06:32:33;10.80;;;4.53;;
48623;SDS011;34422;45.802;16.114;2023-09-07T06:35:00;14.45;;;5.68;;
48623;SDS011;34422;45.802;16.114;2023-09-07T06:37:27;11.88;;;4.72;;
48623;SDS011;34422;45.802;16.114;2023-09-07T06:39:54;12.52;;;5.07;;
48623;SDS011;34422;45.802;16.114;2023-09-07T06:42:21;8.77;;;4.95;;
48623;SDS011;34422;45.802;16.114;2023-09-07T06:44:48;9.40;;;4.63;;
48623;SDS011;34422;45.802;16.114;2023-09-07T06:47:15;13.48;;;5.13;;
48623;SDS011;34422;45.802;16.114;2023-09-07T06:49:42;10.32;;;4.90;;
48623;SDS011;34422;45.802;16.114;2023-09-07T06:52:10;12.63;;;5.03;;
48623;SDS011;34422;45.802;16.114;2023-09-07T06:54:36;7.95;;;4.53;;
48623;SDS011;34422;45.802;16.114;2023-09-07T06:57:06;7.25;;;4.45;;
48623;SDS011;34422;45.802;16.114;2023-09-07T06:59:34;10.18;;;4.82;;
48623;SDS011;34422;45.802;16.114;2023-09-07T07:02:01;9.52;;;4.70;;
48623;SDS011;34422;45.802;16.114;2023-09-07T07:04:31;9.55;;;4.20;;
48623;SDS011;34422;45.802;16.114;2023-09-07T07:06:58;10.77;;;5.50;;
48623;SDS011;34422;45.802;16.114;2023-09-07T07:09:24;7.60;;;4.35;;
48623;SDS011;34422;45.802;16.114;2023-09-07T07:11:51;10.38;;;4.00;;
48623;SDS011;34422;45.802;16.114;2023-09-07T07:14:18;9.05;;;4.28;;
48623;SDS011;34422;45.802;16.114;2023-09-07T07:16:45;6.78;;;4.22;;
48623;SDS011;34422;45.802;16.114;2023-09-07T07:19:11;9.88;;;4.65;;
48623;SDS011;34422;45.802;16.114;2023-09-07T07:21:38;7.20;;;4.10;;
48623;SDS011;34422;45.802;16.114;2023-09-07T07:24:05;7.50;;;3.80;;
48623;SDS011;34422;45.802;16.114;2023-09-07T07:26:34;9.93;;;4.20;;
48623;SDS011;34422;45.802;16.114;2023-09-07T07:29:01;9.90;;;4.05;;
48623;SDS011;34422;45.802;16.114;2023-09-07T07:31:29;9.52;;;4.85;;
48623;SDS011;34422;45.802;16.114;2023-09-07T07:33:56;6.47;;;3.80;;
48623;SDS011;34422;45.802;16.114;2023-09-07T07:36:23;9.85;;;4.55;;
48623;SDS011;34422;45.802;16.114;2023-09-07T07:38:50;10.35;;;4.57;;
48623;SDS011;34422;45.802;16.114;2023-09-07T07:41:17;6.15;;;3.90;;
48623;SDS011;34422;45.802;16.114;2023-09-07T07:43:43;7.65;;;4.20;;
48623;SDS011;34422;45.802;16.114;2023-09-07T07:46:10;9.05;;;3.83;;
48623;SDS011;34422;45.802;16.114;2023-09-07T07:48:37;9.55;;;4.22;;
48623;SDS011;34422;45.802;16.114;2023-09-07T07:51:04;11.20;;;4.78;;
48623;SDS011;34422;45.802;16.114;2023-09-07T07:53:31;7.25;;;3.70;;
48623;SDS011;34422;45.802;16.114;2023-09-07T07:55:58;6.25;;;3.80;;
48623;SDS011;34422;45.802;16.114;2023-09-07T07:58:25;9.25;;;4.25;;
48623;SDS011;34422;45.802;16.114;2023-09-07T08:00:52;14.38;;;4.40;;
48623;SDS011;34422;45.802;16.114;2023-09-07T08:03:19;7.97;;;4.43;;
48623;SDS011;34422;45.802;16.114;2023-09-07T08:05:46;9.80;;;4.00;;
48623;SDS011;34422;45.802;16.114;2023-09-07T08:08:14;9.60;;;4.25;;
48623;SDS011;34422;45.802;16.114;2023-09-07T08:10:41;5.53;;;4.00;;
48623;SDS011;34422;45.802;16.114;2023-09-07T08:13:09;8.43;;;4.55;;
48623;SDS011;34422;45.802;16.114;2023-09-07T08:15:36;7.75;;;4.20;;
48623;SDS011;34422;45.802;16.114;2023-09-07T08:18:03;6.75;;;3.60;;
48623;SDS011;34422;45.802;16.114;2023-09-07T08:20:31;12.15;;;4.53;;
48623;SDS011;34422;45.802;16.114;2023-09-07T08:22:58;9.00;;;4.15;;
48623;SDS011;34422;45.802;16.114;2023-09-07T08:25:25;7.60;;;4.70;;
48623;SDS011;34422;45.802;16.114;2023-09-07T08:27:52;10.18;;;4.47;;
48623;SDS011;34422;45.802;16.114;2023-09-07T08:30:22;8.32;;;4.45;;
48623;SDS011;34422;45.802;16.114;2023-09-07T08:32:51;11.03;;;6.67;;
48623;SDS011;34422;45.802;16.114;2023-09-07T08:35:18;11.52;;;4.45;;
48623;SDS011;34422;45.802;16.114;2023-09-07T08:37:45;7.65;;;3.83;;
48623;SDS011;34422;45.802;16.114;2023-09-07T08:40:11;6.10;;;4.55;;
48623;SDS011;34422;45.802;16.114;2023-09-07T08:42:38;10.30;;;4.65;;
48623;SDS011;34422;45.802;16.114;2023-09-07T08:45:05;6.25;;;4.30;;
48623;SDS011;34422;45.802;16.114;2023-09-07T08:47:35;10.23;;;5.05;;
48623;SDS011;34422;45.802;16.114;2023-09-07T08:50:06;9.13;;;4.93;;
48623;SDS011;34422;45.802;16.114;2023-09-07T08:52:34;10.98;;;5.30;;
48623;SDS011;34422;45.802;16.114;2023-09-07T08:55:02;11.40;;;5.35;;
48623;SDS011;34422;45.802;16.114;2023-09-07T08:57:31;9.60;;;4.60;;
48623;SDS011;34422;45.802;16.114;2023-09-07T08:59:58;11.18;;;4.97;;
48623;SDS011;34422;45.802;16.114;2023-09-07T09:02:26;8.55;;;4.85;;
48623;SDS011;34422;45.802;16.114;2023-09-07T09:04:52;8.23;;;4.35;;
48623;SDS011;34422;45.802;16.114;2023-09-07T09:07:20;9.65;;;4.85;;
48623;SDS011;34422;45.802;16.114;2023-09-07T09:09:47;13.05;;;4.15;;
48623;SDS011;34422;45.802;16.114;2023-09-07T09:12:14;7.68;;;4.60;;
48623;SDS011;34422;45.802;16.114;2023-09-07T09:14:42;8.70;;;4.78;;
48623;SDS011;34422;45.802;16.114;2023-09-07T09:17:11;9.95;;;5.63;;
48623;SDS011;34422;45.802;16.114;2023-09-07T09:19:39;13.45;;;4.57;;
48623;SDS011;34422;45.802;16.114;2023-09-07T09:22:06;9.15;;;5.00;;
48623;SDS011;34422;45.802;16.114;2023-09-07T09:24:33;9.40;;;4.43;;
48623;SDS011;34422;45.802;16.114;2023-09-07T09:27:01;7.13;;;4.50;;
48623;SDS011;34422;45.802;16.114;2023-09-07T09:29:28;10.48;;;5.40;;
48623;SDS011;34422;45.802;16.114;2023-09-07T09:31:55;9.20;;;4.72;;
48623;SDS011;34422;45.802;16.114;2023-09-07T09:34:22;8.07;;;4.53;;
48623;SDS011;34422;45.802;16.114;2023-09-07T09:36:49;7.60;;;4.45;;
48623;SDS011;34422;45.802;16.114;2023-09-07T09:39:22;9.48;;;4.75;;
48623;SDS011;34422;45.802;16.114;2023-09-07T09:41:51;9.55;;;4.20;;
48623;SDS011;34422;45.802;16.114;2023-09-07T09:44:20;5.72;;;3.72;;
48623;SDS011;34422;45.802;16.114;2023-09-07T09:46:48;9.60;;;4.55;;
48623;SDS011;34422;45.802;16.114;2023-09-07T09:49:17;8.20;;;4.38;;
48623;SDS011;34422;45.802;16.114;2023-09-07T09:51:46;8.05;;;4.63;;
48623;SDS011;34422;45.802;16.114;2023-09-07T09:54:19;9.05;;;4.90;;
48623;SDS011;34422;45.802;16.114;2023-09-07T09:56:47;8.57;;;4.32;;
48623;SDS011;34422;45.802;16.114;2023-09-07T09:59:14;8.15;;;4.68;;
48623;SDS011;34422;45.802;16.114;2023-09-07T10:01:45;6.00;;;4.25;;
48623;SDS011;34422;45.802;16.114;2023-09-07T10:04:15;6.60;;;4.25;;
48623;SDS011;34422;45.802;16.114;2023-09-07T10:07:05;8.45;;;4.25;;
48623;SDS011;34422;45.802;16.114;2023-09-07T10:09:32;11.70;;;5.15;;
48623;SDS011;34422;45.802;16.114;2023-09-07T10:12:01;6.38;;;3.85;;
48623;SDS011;34422;45.802;16.114;2023-09-07T10:14:50;8.02;;;4.90;;
48623;SDS011;34422;45.802;16.114;2023-09-07T10:17:22;7.93;;;3.97;;
48623;SDS011;34422;45.802;16.114;2023-09-07T10:19:49;9.73;;;4.75;;
48623;SDS011;34422;45.802;16.114;2023-09-07T10:22:21;7.03;;;4.30;;
48623;SDS011;34422;45.802;16.114;2023-09-07T10:24:56;7.40;;;4.43;;
48623;SDS011;34422;45.802;16.114;2023-09-07T10:27:24;9.82;;;5.18;;
48623;SDS011;34422;45.802;16.114;2023-09-07T10:29:51;8.15;;;4.75;;
48623;SDS011;34422;45.802;16.114;2023-09-07T10:34:48;7.78;;;4.40;;
48623;SDS011;34422;45.802;16.114;2023-09-07T10:37:15;8.90;;;4.65;;
48623;SDS011;34422;45.802;16.114;2023-09-07T10:39:43;9.45;;;4.57;;
48623;SDS011;34422;45.802;16.114;2023-09-07T10:42:20;7.20;;;4.60;;
48623;SDS011;34422;45.802;16.114;2023-09-07T10:44:48;7.57;;;4.78;;
48623;SDS011;34422;45.802;16.114;2023-09-07T10:47:15;10.60;;;4.82;;
48623;SDS011;34422;45.802;16.114;2023-09-07T10:49:43;11.25;;;3.90;;
48623;SDS011;34422;45.802;16.114;2023-09-07T10:52:10;6.57;;;4.18;;
48623;SDS011;34422;45.802;16.114;2023-09-07T10:54:37;7.32;;;4.78;;
48623;SDS011;34422;45.802;16.114;2023-09-07T10:57:07;6.57;;;4.68;;
48623;SDS011;34422;45.802;16.114;2023-09-07T10:59:35;6.45;;;4.30;;
48623;SDS011;34422;45.802;16.114;2023-09-07T11:02:05;6.55;;;4.40;;
48623;SDS011;34422;45.802;16.114;2023-09-07T11:04:32;6.72;;;4.03;;
48623;SDS011;34422;45.802;16.114;2023-09-07T11:06:59;10.25;;;5.40;;
48623;SDS011;34422;45.802;16.114;2023-09-07T11:09:29;9.10;;;4.70;;
48623;SDS011;34422;45.802;16.114;2023-09-07T11:11:56;8.57;;;4.50;;
48623;SDS011;34422;45.802;16.114;2023-09-07T11:14:28;24.65;;;5.28;;
48623;SDS011;34422;45.802;16.114;2023-09-07T11:16:56;10.38;;;4.55;;
48623;SDS011;34422;45.802;16.114;2023-09-07T11:19:23;6.63;;;4.18;;
48623;SDS011;34422;45.802;16.114;2023-09-07T11:21:53;8.02;;;3.97;;
48623;SDS011;34422;45.802;16.114;2023-09-07T11:24:20;10.10;;;4.57;;
48623;SDS011;34422;45.802;16.114;2023-09-07T11:26:47;9.32;;;4.18;;
48623;SDS011;34422;45.802;16.114;2023-09-07T11:29:17;7.97;;;3.97;;
48623;SDS011;34422;45.802;16.114;2023-09-07T11:31:45;8.88;;;3.83;;
48623;SDS011;34422;45.802;16.114;2023-09-07T11:34:12;9.27;;;3.55;;
48623;SDS011;34422;45.802;16.114;2023-09-07T11:36:41;8.35;;;3.50;;
48623;SDS011;34422;45.802;16.114;2023-09-07T11:39:09;8.70;;;4.32;;
48623;SDS011;34422;45.802;16.114;2023-09-07T11:41:43;7.05;;;4.20;;
48623;SDS011;34422;45.802;16.114;2023-09-07T11:44:11;5.90;;;3.80;;
48623;SDS011;34422;45.802;16.114;2023-09-07T11:46:47;7.35;;;4.30;;
48623;SDS011;34422;45.802;16.114;2023-09-07T11:49:43;9.60;;;4.07;;
48623;SDS011;34422;45.802;16.114;2023-09-07T11:52:13;7.30;;;3.75;;
48623;SDS011;34422;45.802;16.114;2023-09-07T11:55:08;8.07;;;4.28;;
48623;SDS011;34422;45.802;16.114;2023-09-07T11:57:36;7.95;;;4.15;;
48623;SDS011;34422;45.802;16.114;2023-09-07T12:00:03;6.63;;;3.95;;
48623;SDS011;34422;45.802;16.114;2023-09-07T12:02:31;8.30;;;4.68;;
48623;SDS011;34422;45.802;16.114;2023-09-07T12:04:58;7.40;;;3.97;;
48623;SDS011;34422;45.802;16.114;2023-09-07T12:07:27;8.88;;;3.80;;
48623;SDS011;34422;45.802;16.114;2023-09-07T12:09:54;10.30;;;4.18;;
48623;SDS011;34422;45.802;16.114;2023-09-07T12:12:23;7.17;;;3.50;;
48623;SDS011;34422;45.802;16.114;2023-09-07T12:14:50;6.78;;;3.88;;
48623;SDS011;34422;45.802;16.114;2023-09-07T12:17:17;8.13;;;4.10;;
48623;SDS011;34422;45.802;16.114;2023-09-07T12:19:46;7.28;;;3.92;;
48623;SDS011;34422;45.802;16.114;2023-09-07T12:22:12;15.45;;;4.93;;
48623;SDS011;34422;45.802;16.114;2023-09-07T12:24:39;13.45;;;4.40;;
48623;SDS011;34422;45.802;16.114;2023-09-07T12:27:06;8.30;;;4.75;;
48623;SDS011;34422;45.802;16.114;2023-09-07T12:29:33;10.27;;;3.72;;
48623;SDS011;34422;45.802;16.114;2023-09-07T12:31:59;10.32;;;4.45;;
48623;SDS011;34422;45.802;16.114;2023-09-07T12:34:26;8.63;;;4.50;;
48623;SDS011;34422;45.802;16.114;2023-09-07T12:36:53;8.80;;;4.35;;
48623;SDS011;34422;45.802;16.114;2023-09-07T12:39:20;8.15;;;4.07;;
48623;SDS011;34422;45.802;16.114;2023-09-07T12:41:47;10.07;;;4.65;;
48623;SDS011;34422;45.802;16.114;2023-09-07T12:44:14;7.13;;;4.03;;
48623;SDS011;34422;45.802;16.114;2023-09-07T12:46:41;8.73;;;3.67;;
48623;SDS011;34422;45.802;16.114;2023-09-07T12:49:07;6.75;;;4.07;;
48623;SDS011;34422;45.802;16.114;2023-09-07T12:51:34;10.65;;;4.32;;
48623;SDS011;34422;45.802;16.114;2023-09-07T12:54:01;6.88;;;4.43;;
48623;SDS011;34422;45.802;16.114;2023-09-07T12:56:28;8.05;;;4.13;;
48623;SDS011;34422;45.802;16.114;2023-09-07T12:58:55;7.90;;;4.43;;
48623;SDS011;34422;45.802;16.114;2023-09-07T13:01:23;8.07;;;4.10;;
48623;SDS011;34422;45.802;16.114;2023-09-07T13:03:50;8.10;;;4.22;;
48623;SDS011;34422;45.802;16.114;2023-09-07T13:06:17;9.48;;;4.43;;
48623;SDS011;34422;45.802;16.114;2023-09-07T13:08:44;6.60;;;3.72;;
48623;SDS011;34422;45.802;16.114;2023-09-07T13:11:11;5.68;;;3.70;;
48623;SDS011;34422;45.802;16.114;2023-09-07T13:13:38;8.95;;;4.22;;
48623;SDS011;34422;45.802;16.114;2023-09-07T13:16:05;10.27;;;4.05;;
48623;SDS011;34422;45.802;16.114;2023-09-07T13:18:32;9.90;;;4.53;;
48623;SDS011;34422;45.802;16.114;2023-09-07T13:20:58;15.10;;;4.55;;
48623;SDS011;34422;45.802;16.114;2023-09-07T13:23:29;7.93;;;4.00;;
48623;SDS011;34422;45.802;16.114;2023-09-07T13:25:56;9.75;;;4.10;;
48623;SDS011;34422;45.802;16.114;2023-09-07T13:28:23;10.65;;;4.03;;
48623;SDS011;34422;45.802;16.114;2023-09-07T13:30:50;6.32;;;4.53;;
48623;SDS011;34422;45.802;16.114;2023-09-07T13:33:17;6.65;;;3.92;;
48623;SDS011;34422;45.802;16.114;2023-09-07T13:35:44;6.80;;;4.07;;
48623;SDS011;34422;45.802;16.114;2023-09-07T13:38:12;7.38;;;4.00;;
48623;SDS011;34422;45.802;16.114;2023-09-07T13:40:40;8.80;;;4.18;;
48623;SDS011;34422;45.802;16.114;2023-09-07T13:43:06;7.22;;;4.00;;
48623;SDS011;34422;45.802;16.114;2023-09-07T13:45:33;12.23;;;4.47;;
48623;SDS011;34422;45.802;16.114;2023-09-07T13:48:01;7.50;;;3.70;;
48623;SDS011;34422;45.802;16.114;2023-09-07T13:50:28;7.25;;;4.15;;
48623;SDS011;34422;45.802;16.114;2023-09-07T13:52:56;7.25;;;4.03;;
48623;SDS011;34422;45.802;16.114;2023-09-07T13:55:22;10.65;;;4.05;;
48623;SDS011;34422;45.802;16.114;2023-09-07T13:57:51;8.57;;;4.05;;
48623;SDS011;34422;45.802;16.114;2023-09-07T14:00:18;8.80;;;3.65;;
48623;SDS011;34422;45.802;16.114;2023-09-07T14:02:45;6.35;;;3.80;;
48623;SDS011;34422;45.802;16.114;2023-09-07T14:05:12;9.90;;;4.35;;
48623;SDS011;34422;45.802;16.114;2023-09-07T14:07:39;6.82;;;4.25;;
48623;SDS011;34422;45.802;16.114;2023-09-07T14:10:07;8.27;;;3.78;;
48623;SDS011;34422;45.802;16.114;2023-09-07T14:12:34;9.68;;;3.97;;
48623;SDS011;34422;45.802;16.114;2023-09-07T14:15:00;8.73;;;3.92;;
48623;SDS011;34422;45.802;16.114;2023-09-07T14:17:27;7.80;;;4.43;;
48623;SDS011;34422;45.802;16.114;2023-09-07T14:19:54;7.20;;;3.78;;
48623;SDS011;34422;45.802;16.114;2023-09-07T14:22:21;13.00;;;4.03;;
48623;SDS011;34422;45.802;16.114;2023-09-07T14:24:49;11.93;;;3.97;;
48623;SDS011;34422;45.802;16.114;2023-09-07T14:27:16;8.60;;;4.22;;
48623;SDS011;34422;45.802;16.114;2023-09-07T14:29:43;13.07;;;4.20;;
48623;SDS011;34422;45.802;16.114;2023-09-07T14:32:09;14.07;;;4.35;;
48623;SDS011;34422;45.802;16.114;2023-09-07T14:34:36;7.95;;;3.92;;
48623;SDS011;34422;45.802;16.114;2023-09-07T14:37:03;13.00;;;4.72;;